Uwchland, Pennsylvania
Current Conditions -  °F | °C
As of 5:15 AM on Thursday 18 Dec 2014 (Local Time) from KMQS Reporting Station
Clear Clear  
Wind Chill: 23°   Ceiling: Unl
Heat Index: 32°   Visibility: 10mi
Dew Point: 19°   Wind: 13mph
Humidity: 60%   Direction: 310°NW
Pressure: 30.01"   Gusts: 20mph
Location:  40.07°N, 75.69°W
Report Text: KMQS 181015Z AUTO 31011G17KT 10SM CLR 00/M07 A3001 RMK AO2
Loading
Personal Weather Stations






























Interactive Weather Map New forecast layout! Learn more

10-Day Weather Forecast

Advertisements
Track Severe Weather on mobile